sensor_id;sensor_type;location;lat;lon;timestamp;temperature;humidity
21770;DHT22;11046;49.558;8.674;2024-02-26T00:01:46;9.30;88.80
21770;DHT22;11046;49.558;8.674;2024-02-26T00:04:47;9.30;88.60
21770;DHT22;11046;49.558;8.674;2024-02-26T00:07:47;9.30;88.50
21770;DHT22;11046;49.558;8.674;2024-02-26T00:10:49;9.30;88.40
21770;DHT22;11046;49.558;8.674;2024-02-26T00:13:49;9.30;88.30
21770;DHT22;11046;49.558;8.674;2024-02-26T00:16:50;9.30;88.10
21770;DHT22;11046;49.558;8.674;2024-02-26T00:19:50;9.40;87.80
21770;DHT22;11046;49.558;8.674;2024-02-26T00:22:51;9.40;87.40
21770;DHT22;11046;49.558;8.674;2024-02-26T00:25:52;9.40;87.50
21770;DHT22;11046;49.558;8.674;2024-02-26T00:28:52;9.40;87.60
21770;DHT22;11046;49.558;8.674;2024-02-26T00:31:53;9.40;87.50
21770;DHT22;11046;49.558;8.674;2024-02-26T00:34:54;9.40;87.10
21770;DHT22;11046;49.558;8.674;2024-02-26T00:37:54;9.40;87.00
21770;DHT22;11046;49.558;8.674;2024-02-26T00:40:55;9.40;86.90
21770;DHT22;11046;49.558;8.674;2024-02-26T00:43:55;9.40;86.70
21770;DHT22;11046;49.558;8.674;2024-02-26T00:46:56;9.40;86.80
21770;DHT22;11046;49.558;8.674;2024-02-26T00:49:56;9.40;86.50
21770;DHT22;11046;49.558;8.674;2024-02-26T00:52:57;9.40;86.50
21770;DHT22;11046;49.558;8.674;2024-02-26T00:55:58;9.40;86.20
21770;DHT22;11046;49.558;8.674;2024-02-26T00:59:01;9.50;86.00
21770;DHT22;11046;49.558;8.674;2024-02-26T01:02:02;9.40;85.90
21770;DHT22;11046;49.558;8.674;2024-02-26T01:05:05;9.50;86.20
21770;DHT22;11046;49.558;8.674;2024-02-26T01:08:06;9.50;86.20
21770;DHT22;11046;49.558;8.674;2024-02-26T01:11:07;9.50;86.20
21770;DHT22;11046;49.558;8.674;2024-02-26T01:14:08;9.50;86.20
21770;DHT22;11046;49.558;8.674;2024-02-26T01:17:08;9.50;86.30
21770;DHT22;11046;49.558;8.674;2024-02-26T01:20:09;9.50;86.20
21770;DHT22;11046;49.558;8.674;2024-02-26T01:23:10;9.50;86.40
21770;DHT22;11046;49.558;8.674;2024-02-26T01:26:11;9.50;86.40
21770;DHT22;11046;49.558;8.674;2024-02-26T01:29:11;9.60;86.50
21770;DHT22;11046;49.558;8.674;2024-02-26T01:32:12;9.50;86.50
21770;DHT22;11046;49.558;8.674;2024-02-26T01:35:13;9.50;86.60
21770;DHT22;11046;49.558;8.674;2024-02-26T01:38:13;9.50;86.60
21770;DHT22;11046;49.558;8.674;2024-02-26T01:41:14;9.40;86.60
21770;DHT22;11046;49.558;8.674;2024-02-26T01:44:15;9.40;86.80
21770;DHT22;11046;49.558;8.674;2024-02-26T01:47:16;9.30;87.00
21770;DHT22;11046;49.558;8.674;2024-02-26T01:50:17;9.30;87.00
21770;DHT22;11046;49.558;8.674;2024-02-26T01:53:18;9.40;87.00
21770;DHT22;11046;49.558;8.674;2024-02-26T01:56:21;9.30;87.00
21770;DHT22;11046;49.558;8.674;2024-02-26T01:59:22;9.30;86.90
21770;DHT22;11046;49.558;8.674;2024-02-26T02:02:22;9.30;86.90
21770;DHT22;11046;49.558;8.674;2024-02-26T02:05:24;9.40;86.90
21770;DHT22;11046;49.558;8.674;2024-02-26T02:08:27;9.30;86.70
21770;DHT22;11046;49.558;8.674;2024-02-26T02:11:27;9.30;86.70
21770;DHT22;11046;49.558;8.674;2024-02-26T02:14:28;9.30;86.80
21770;DHT22;11046;49.558;8.674;2024-02-26T02:17:29;9.30;87.60
21770;DHT22;11046;49.558;8.674;2024-02-26T02:20:33;9.30;86.80
21770;DHT22;11046;49.558;8.674;2024-02-26T02:23:34;9.30;86.90
21770;DHT22;11046;49.558;8.674;2024-02-26T02:26:35;9.30;86.90
21770;DHT22;11046;49.558;8.674;2024-02-26T02:29:36;9.40;87.00
21770;DHT22;11046;49.558;8.674;2024-02-26T02:32:39;9.40;87.00
21770;DHT22;11046;49.558;8.674;2024-02-26T02:35:41;9.40;87.20
21770;DHT22;11046;49.558;8.674;2024-02-26T02:38:49;9.30;87.20
21770;DHT22;11046;49.558;8.674;2024-02-26T02:41:52;9.30;87.30
21770;DHT22;11046;49.558;8.674;2024-02-26T02:44:53;9.40;87.50
21770;DHT22;11046;49.558;8.674;2024-02-26T02:47:54;9.30;87.60
21770;DHT22;11046;49.558;8.674;2024-02-26T02:50:55;9.30;87.80
21770;DHT22;11046;49.558;8.674;2024-02-26T02:53:56;9.30;88.30
21770;DHT22;11046;49.558;8.674;2024-02-26T02:56:56;9.20;88.50
21770;DHT22;11046;49.558;8.674;2024-02-26T02:59:57;9.10;88.90
21770;DHT22;11046;49.558;8.674;2024-02-26T03:02:57;9.10;89.30
21770;DHT22;11046;49.558;8.674;2024-02-26T03:05:58;9.10;89.60
21770;DHT22;11046;49.558;8.674;2024-02-26T03:08:59;9.10;90.00
21770;DHT22;11046;49.558;8.674;2024-02-26T03:11:59;9.00;90.10
21770;DHT22;11046;49.558;8.674;2024-02-26T03:15:00;8.90;90.30
21770;DHT22;11046;49.558;8.674;2024-02-26T03:18:04;8.90;90.50
21770;DHT22;11046;49.558;8.674;2024-02-26T03:21:05;8.90;90.60
21770;DHT22;11046;49.558;8.674;2024-02-26T03:24:06;8.90;90.80
21770;DHT22;11046;49.558;8.674;2024-02-26T03:27:09;9.00;91.00
21770;DHT22;11046;49.558;8.674;2024-02-26T03:30:10;8.90;91.30
21770;DHT22;11046;49.558;8.674;2024-02-26T03:33:11;8.90;91.50
21770;DHT22;11046;49.558;8.674;2024-02-26T03:36:11;8.90;91.80
21770;DHT22;11046;49.558;8.674;2024-02-26T03:39:12;8.80;92.00
21770;DHT22;11046;49.558;8.674;2024-02-26T03:42:12;8.70;92.30
21770;DHT22;11046;49.558;8.674;2024-02-26T03:45:13;8.60;92.60
21770;DHT22;11046;49.558;8.674;2024-02-26T03:48:14;8.60;92.80
21770;DHT22;11046;49.558;8.674;2024-02-26T03:51:14;8.50;93.00
21770;DHT22;11046;49.558;8.674;2024-02-26T03:54:15;8.40;93.20
21770;DHT22;11046;49.558;8.674;2024-02-26T03:57:15;8.20;93.50
21770;DHT22;11046;49.558;8.674;2024-02-26T04:00:16;8.20;93.90
21770;DHT22;11046;49.558;8.674;2024-02-26T04:03:17;8.00;94.20
21770;DHT22;11046;49.558;8.674;2024-02-26T04:06:17;7.90;94.50
21770;DHT22;11046;49.558;8.674;2024-02-26T04:09:20;7.80;94.70
21770;DHT22;11046;49.558;8.674;2024-02-26T04:12:20;7.70;94.90
21770;DHT22;11046;49.558;8.674;2024-02-26T04:15:21;7.70;95.10
21770;DHT22;11046;49.558;8.674;2024-02-26T04:18:21;7.70;95.20
21770;DHT22;11046;49.558;8.674;2024-02-26T04:21:22;7.70;95.30
21770;DHT22;11046;49.558;8.674;2024-02-26T04:24:22;7.70;95.50
21770;DHT22;11046;49.558;8.674;2024-02-26T04:27:23;7.60;95.70
21770;DHT22;11046;49.558;8.674;2024-02-26T04:30:23;7.60;95.80
21770;DHT22;11046;49.558;8.674;2024-02-26T04:33:24;7.50;96.00
21770;DHT22;11046;49.558;8.674;2024-02-26T04:36:25;7.40;96.30
21770;DHT22;11046;49.558;8.674;2024-02-26T04:39:26;7.30;96.60
21770;DHT22;11046;49.558;8.674;2024-02-26T04:42:27;7.20;96.90
21770;DHT22;11046;49.558;8.674;2024-02-26T04:45:27;7.20;97.20
21770;DHT22;11046;49.558;8.674;2024-02-26T04:48:28;7.20;97.30
21770;DHT22;11046;49.558;8.674;2024-02-26T04:51:28;7.20;97.30
21770;DHT22;11046;49.558;8.674;2024-02-26T04:54:29;7.20;97.30
21770;DHT22;11046;49.558;8.674;2024-02-26T04:57:30;7.20;97.40
21770;DHT22;11046;49.558;8.674;2024-02-26T05:00:30;7.20;97.50
21770;DHT22;11046;49.558;8.674;2024-02-26T05:03:31;7.20;97.70
21770;DHT22;11046;49.558;8.674;2024-02-26T05:06:31;7.20;97.90
21770;DHT22;11046;49.558;8.674;2024-02-26T05:09:32;7.10;98.10
21770;DHT22;11046;49.558;8.674;2024-02-26T05:12:33;7.10;98.10
21770;DHT22;11046;49.558;8.674;2024-02-26T05:15:36;7.10;98.30
21770;DHT22;11046;49.558;8.674;2024-02-26T05:18:36;7.10;98.30
21770;DHT22;11046;49.558;8.674;2024-02-26T05:21:37;7.10;98.80
21770;DHT22;11046;49.558;8.674;2024-02-26T05:24:38;6.90;99.10
21770;DHT22;11046;49.558;8.674;2024-02-26T05:27:39;6.90;99.40
21770;DHT22;11046;49.558;8.674;2024-02-26T05:30:39;6.90;99.70
21770;DHT22;11046;49.558;8.674;2024-02-26T05:33:40;6.90;99.90
21770;DHT22;11046;49.558;8.674;2024-02-26T05:36:41;6.90;99.90
21770;DHT22;11046;49.558;8.674;2024-02-26T05:39:41;6.90;99.90
21770;DHT22;11046;49.558;8.674;2024-02-26T05:42:42;6.90;99.90
21770;DHT22;11046;49.558;8.674;2024-02-26T05:45:45;6.90;99.90
21770;DHT22;11046;49.558;8.674;2024-02-26T05:48:51;6.90;99.90
21770;DHT22;11046;49.558;8.674;2024-02-26T05:51:51;6.90;99.90
21770;DHT22;11046;49.558;8.674;2024-02-26T05:54:52;6.90;99.90
21770;DHT22;11046;49.558;8.674;2024-02-26T05:57:52;6.90;99.90
21770;DHT22;11046;49.558;8.674;2024-02-26T06:04:22;6.90;99.90
21770;DHT22;11046;49.558;8.674;2024-02-26T06:07:23;6.80;99.90
21770;DHT22;11046;49.558;8.674;2024-02-26T06:10:24;6.80;99.90
21770;DHT22;11046;49.558;8.674;2024-02-26T06:13:24;6.70;99.90
21770;DHT22;11046;49.558;8.674;2024-02-26T06:16:25;6.70;99.90
21770;DHT22;11046;49.558;8.674;2024-02-26T06:19:25;6.80;99.90
21770;DHT22;11046;49.558;8.674;2024-02-26T06:22:27;6.80;99.90
21770;DHT22;11046;49.558;8.674;2024-02-26T06:25:27;6.80;99.90
21770;DHT22;11046;49.558;8.674;2024-02-26T06:28:28;6.80;99.90
21770;DHT22;11046;49.558;8.674;2024-02-26T06:31:30;6.90;99.90
21770;DHT22;11046;49.558;8.674;2024-02-26T06:34:31;6.90;99.90
21770;DHT22;11046;49.558;8.674;2024-02-26T06:37:32;7.00;99.90
21770;DHT22;11046;49.558;8.674;2024-02-26T06:40:34;7.10;99.90
21770;DHT22;11046;49.558;8.674;2024-02-26T06:43:34;7.10;99.90
21770;DHT22;11046;49.558;8.674;2024-02-26T06:46:35;7.20;99.90
21770;DHT22;11046;49.558;8.674;2024-02-26T06:49:36;7.30;99.90
21770;DHT22;11046;49.558;8.674;2024-02-26T06:52:36;7.20;99.90
21770;DHT22;11046;49.558;8.674;2024-02-26T06:55:39;7.20;99.90
21770;DHT22;11046;49.558;8.674;2024-02-26T06:58:41;7.20;99.90
21770;DHT22;11046;49.558;8.674;2024-02-26T07:01:41;7.20;99.90
21770;DHT22;11046;49.558;8.674;2024-02-26T07:04:42;7.20;99.90
21770;DHT22;11046;49.558;8.674;2024-02-26T07:07:43;7.30;99.90
21770;DHT22;11046;49.558;8.674;2024-02-26T07:10:44;7.30;99.90
21770;DHT22;11046;49.558;8.674;2024-02-26T07:13:48;7.30;99.90
21770;DHT22;11046;49.558;8.674;2024-02-26T07:16:50;7.40;99.90
21770;DHT22;11046;49.558;8.674;2024-02-26T07:19:51;7.40;99.90
21770;DHT22;11046;49.558;8.674;2024-02-26T07:22:52;7.50;99.90
21770;DHT22;11046;49.558;8.674;2024-02-26T07:25:54;7.60;99.90
21770;DHT22;11046;49.558;8.674;2024-02-26T07:28:55;7.60;99.90
21770;DHT22;11046;49.558;8.674;2024-02-26T07:31:59;7.70;99.90
21770;DHT22;11046;49.558;8.674;2024-02-26T07:35:02;7.70;99.90
21770;DHT22;11046;49.558;8.674;2024-02-26T07:38:03;7.70;99.90
21770;DHT22;11046;49.558;8.674;2024-02-26T07:41:07;7.80;99.90
21770;DHT22;11046;49.558;8.674;2024-02-26T07:44:07;7.80;99.90
21770;DHT22;11046;49.558;8.674;2024-02-26T07:47:09;7.90;99.90
21770;DHT22;11046;49.558;8.674;2024-02-26T07:50:10;8.00;99.90
21770;DHT22;11046;49.558;8.674;2024-02-26T07:53:13;7.90;99.90
21770;DHT22;11046;49.558;8.674;2024-02-26T07:56:14;7.90;99.90
21770;DHT22;11046;49.558;8.674;2024-02-26T07:59:14;7.90;99.90
21770;DHT22;11046;49.558;8.674;2024-02-26T08:02:16;7.90;99.90
21770;DHT22;11046;49.558;8.674;2024-02-26T08:05:16;8.00;99.90
21770;DHT22;11046;49.558;8.674;2024-02-26T08:08:17;7.90;99.90
21770;DHT22;11046;49.558;8.674;2024-02-26T08:11:18;7.80;99.90
21770;DHT22;11046;49.558;8.674;2024-02-26T08:14:19;7.80;99.90
21770;DHT22;11046;49.558;8.674;2024-02-26T08:17:22;7.70;99.90
21770;DHT22;11046;49.558;8.674;2024-02-26T08:20:25;7.80;99.90
21770;DHT22;11046;49.558;8.674;2024-02-26T08:23:29;7.80;99.90
21770;DHT22;11046;49.558;8.674;2024-02-26T08:26:29;7.90;99.90
21770;DHT22;11046;49.558;8.674;2024-02-26T08:29:30;7.90;99.90
21770;DHT22;11046;49.558;8.674;2024-02-26T08:32:31;7.90;99.90
21770;DHT22;11046;49.558;8.674;2024-02-26T08:35:32;7.90;99.90
21770;DHT22;11046;49.558;8.674;2024-02-26T08:38:33;7.90;99.90
21770;DHT22;11046;49.558;8.674;2024-02-26T08:41:36;7.90;99.90
21770;DHT22;11046;49.558;8.674;2024-02-26T08:44:36;8.00;99.90
21770;DHT22;11046;49.558;8.674;2024-02-26T08:47:37;8.10;99.90
21770;DHT22;11046;49.558;8.674;2024-02-26T08:50:38;8.20;99.90
21770;DHT22;11046;49.558;8.674;2024-02-26T08:53:38;8.30;99.90
21770;DHT22;11046;49.558;8.674;2024-02-26T08:56:39;8.40;99.90
21770;DHT22;11046;49.558;8.674;2024-02-26T08:59:40;8.60;99.90
21770;DHT22;11046;49.558;8.674;2024-02-26T09:02:40;8.60;99.90
21770;DHT22;11046;49.558;8.674;2024-02-26T09:05:43;8.70;99.90
21770;DHT22;11046;49.558;8.674;2024-02-26T09:08:43;8.80;99.90
21770;DHT22;11046;49.558;8.674;2024-02-26T09:11:44;8.80;99.90
21770;DHT22;11046;49.558;8.674;2024-02-26T09:14:44;8.90;99.90
21770;DHT22;11046;49.558;8.674;2024-02-26T09:17:45;8.90;99.90
21770;DHT22;11046;49.558;8.674;2024-02-26T09:20:46;9.00;99.90
21770;DHT22;11046;49.558;8.674;2024-02-26T09:23:46;9.10;99.90
21770;DHT22;11046;49.558;8.674;2024-02-26T09:26:47;9.10;99.90
21770;DHT22;11046;49.558;8.674;2024-02-26T09:29:48;9.10;99.90
21770;DHT22;11046;49.558;8.674;2024-02-26T09:32:48;9.10;99.90
21770;DHT22;11046;49.558;8.674;2024-02-26T09:35:49;9.10;99.90
21770;DHT22;11046;49.558;8.674;2024-02-26T09:38:53;9.20;99.90
21770;DHT22;11046;49.558;8.674;2024-02-26T09:41:54;9.10;99.90
21770;DHT22;11046;49.558;8.674;2024-02-26T09:44:56;9.10;99.90
21770;DHT22;11046;49.558;8.674;2024-02-26T09:47:59;9.10;99.90
21770;DHT22;11046;49.558;8.674;2024-02-26T09:51:02;9.00;99.90
21770;DHT22;11046;49.558;8.674;2024-02-26T09:54:04;9.00;99.90
21770;DHT22;11046;49.558;8.674;2024-02-26T09:57:09;9.10;99.90
21770;DHT22;11046;49.558;8.674;2024-02-26T10:00:19;9.10;99.90
21770;DHT22;11046;49.558;8.674;2024-02-26T10:03:22;9.10;99.90
21770;DHT22;11046;49.558;8.674;2024-02-26T10:06:29;9.10;99.90
21770;DHT22;11046;49.558;8.674;2024-02-26T10:09:30;9.10;99.90
21770;DHT22;11046;49.558;8.674;2024-02-26T10:12:33;9.00;99.90
21770;DHT22;11046;49.558;8.674;2024-02-26T10:15:33;9.10;99.90
21770;DHT22;11046;49.558;8.674;2024-02-26T10:18:47;9.10;99.90
21770;DHT22;11046;49.558;8.674;2024-02-26T10:21:55;9.10;99.90
21770;DHT22;11046;49.558;8.674;2024-02-26T10:24:59;9.20;99.90
21770;DHT22;11046;49.558;8.674;2024-02-26T10:28:04;9.40;99.90
21770;DHT22;11046;49.558;8.674;2024-02-26T10:31:08;9.50;99.90
21770;DHT22;11046;49.558;8.674;2024-02-26T10:34:09;9.60;99.70
21770;DHT22;11046;49.558;8.674;2024-02-26T10:37:13;9.60;99.60
21770;DHT22;11046;49.558;8.674;2024-02-26T10:40:15;9.70;99.70
21770;DHT22;11046;49.558;8.674;2024-02-26T10:43:16;9.80;99.80
21770;DHT22;11046;49.558;8.674;2024-02-26T10:46:19;10.00;99.70
21770;DHT22;11046;49.558;8.674;2024-02-26T10:49:20;10.10;99.60
21770;DHT22;11046;49.558;8.674;2024-02-26T10:52:22;10.20;99.50
21770;DHT22;11046;49.558;8.674;2024-02-26T10:55:23;10.40;99.40
21770;DHT22;11046;49.558;8.674;2024-02-26T10:58:25;10.60;99.30
21770;DHT22;11046;49.558;8.674;2024-02-26T11:01:27;10.70;99.30
21770;DHT22;11046;49.558;8.674;2024-02-26T11:04:35;10.80;99.20
21770;DHT22;11046;49.558;8.674;2024-02-26T11:07:40;10.90;99.10
21770;DHT22;11046;49.558;8.674;2024-02-26T11:10:42;11.00;99.00
21770;DHT22;11046;49.558;8.674;2024-02-26T11:13:46;11.00;99.00
21770;DHT22;11046;49.558;8.674;2024-02-26T11:16:49;11.20;98.90
21770;DHT22;11046;49.558;8.674;2024-02-26T11:19:56;11.30;98.80
21770;DHT22;11046;49.558;8.674;2024-02-26T11:22:58;11.40;98.70
21770;DHT22;11046;49.558;8.674;2024-02-26T11:26:02;11.40;98.70
21770;DHT22;11046;49.558;8.674;2024-02-26T11:29:04;11.60;98.50
21770;DHT22;11046;49.558;8.674;2024-02-26T11:32:06;11.60;98.30
21770;DHT22;11046;49.558;8.674;2024-02-26T11:35:07;11.60;98.40
21770;DHT22;11046;49.558;8.674;2024-02-26T11:38:08;11.60;98.50
21770;DHT22;11046;49.558;8.674;2024-02-26T11:41:18;11.70;98.40
21770;DHT22;11046;49.558;8.674;2024-02-26T11:44:31;11.70;98.30
21770;DHT22;11046;49.558;8.674;2024-02-26T11:47:34;11.80;98.20
21770;DHT22;11046;49.558;8.674;2024-02-26T11:50:40;11.90;98.20
21770;DHT22;11046;49.558;8.674;2024-02-26T11:53:47;12.10;98.10
21770;DHT22;11046;49.558;8.674;2024-02-26T11:56:50;12.30;97.90
21770;DHT22;11046;49.558;8.674;2024-02-26T11:59:51;12.50;98.00
21770;DHT22;11046;49.558;8.674;2024-02-26T12:02:53;12.70;97.80
21770;DHT22;11046;49.558;8.674;2024-02-26T12:06:01;13.00;97.60
21770;DHT22;11046;49.558;8.674;2024-02-26T12:09:02;13.20;97.40
21770;DHT22;11046;49.558;8.674;2024-02-26T12:12:07;13.40;97.10
21770;DHT22;11046;49.558;8.674;2024-02-26T12:15:09;13.60;96.90
21770;DHT22;11046;49.558;8.674;2024-02-26T12:18:18;13.70;96.70
21770;DHT22;11046;49.558;8.674;2024-02-26T12:21:19;13.70;96.50
21770;DHT22;11046;49.558;8.674;2024-02-26T12:24:19;13.80;96.40
21770;DHT22;11046;49.558;8.674;2024-02-26T12:27:21;13.90;96.40
21770;DHT22;11046;49.558;8.674;2024-02-26T12:30:22;14.00;96.30
21770;DHT22;11046;49.558;8.674;2024-02-26T12:33:23;14.20;96.60
21770;DHT22;11046;49.558;8.674;2024-02-26T12:36:26;14.30;96.30
21770;DHT22;11046;49.558;8.674;2024-02-26T12:39:27;14.70;96.10
21770;DHT22;11046;49.558;8.674;2024-02-26T12:42:29;14.80;95.50
21770;DHT22;11046;49.558;8.674;2024-02-26T12:45:30;14.70;95.30
21770;DHT22;11046;49.558;8.674;2024-02-26T12:48:32;14.70;95.30
21770;DHT22;11046;49.558;8.674;2024-02-26T12:51:33;14.60;95.30
21770;DHT22;11046;49.558;8.674;2024-02-26T12:54:34;14.50;95.10
21770;DHT22;11046;49.558;8.674;2024-02-26T12:57:37;14.50;95.10
21770;DHT22;11046;49.558;8.674;2024-02-26T13:00:38;14.50;95.00
21770;DHT22;11046;49.558;8.674;2024-02-26T13:03:39;14.50;94.90
21770;DHT22;11046;49.558;8.674;2024-02-26T13:06:40;14.50;94.70
21770;DHT22;11046;49.558;8.674;2024-02-26T13:09:41;14.40;94.60
21770;DHT22;11046;49.558;8.674;2024-02-26T13:12:48;14.50;94.70
21770;DHT22;11046;49.558;8.674;2024-02-26T13:16:07;14.60;94.60
21770;DHT22;11046;49.558;8.674;2024-02-26T13:19:09;14.70;94.30
21770;DHT22;11046;49.558;8.674;2024-02-26T13:22:10;14.50;94.30
21770;DHT22;11046;49.558;8.674;2024-02-26T13:25:11;14.20;94.30
21770;DHT22;11046;49.558;8.674;2024-02-26T13:28:17;14.30;94.40
21770;DHT22;11046;49.558;8.674;2024-02-26T13:31:17;14.40;94.10
21770;DHT22;11046;49.558;8.674;2024-02-26T13:34:29;14.50;94.00
21770;DHT22;11046;49.558;8.674;2024-02-26T13:37:30;14.50;93.80
21770;DHT22;11046;49.558;8.674;2024-02-26T13:40:31;14.60;94.00
21770;DHT22;11046;49.558;8.674;2024-02-26T13:43:32;14.60;93.70
21770;DHT22;11046;49.558;8.674;2024-02-26T13:46:32;14.60;93.50
21770;DHT22;11046;49.558;8.674;2024-02-26T13:49:33;14.70;93.20
21770;DHT22;11046;49.558;8.674;2024-02-26T13:52:34;14.70;93.10
21770;DHT22;11046;49.558;8.674;2024-02-26T13:55:35;14.50;93.00
21770;DHT22;11046;49.558;8.674;2024-02-26T13:58:36;14.40;92.90
21770;DHT22;11046;49.558;8.674;2024-02-26T14:01:37;14.30;92.90
21770;DHT22;11046;49.558;8.674;2024-02-26T14:04:38;14.30;92.80
21770;DHT22;11046;49.558;8.674;2024-02-26T14:07:39;14.50;92.70
21770;DHT22;11046;49.558;8.674;2024-02-26T14:10:40;14.40;92.40
21770;DHT22;11046;49.558;8.674;2024-02-26T14:13:40;14.20;92.40
21770;DHT22;11046;49.558;8.674;2024-02-26T14:16:41;14.20;92.50
21770;DHT22;11046;49.558;8.674;2024-02-26T14:19:42;14.20;92.40
21770;DHT22;11046;49.558;8.674;2024-02-26T14:22:44;14.10;92.50
21770;DHT22;11046;49.558;8.674;2024-02-26T14:25:45;14.30;92.50
21770;DHT22;11046;49.558;8.674;2024-02-26T14:28:46;14.30;92.60
21770;DHT22;11046;49.558;8.674;2024-02-26T14:31:47;14.40;92.50
21770;DHT22;11046;49.558;8.674;2024-02-26T14:34:47;14.40;92.40
21770;DHT22;11046;49.558;8.674;2024-02-26T14:37:48;14.40;92.50
21770;DHT22;11046;49.558;8.674;2024-02-26T14:40:50;14.40;92.30
21770;DHT22;11046;49.558;8.674;2024-02-26T14:43:51;14.40;92.30
21770;DHT22;11046;49.558;8.674;2024-02-26T14:46:51;14.50;92.40
21770;DHT22;11046;49.558;8.674;2024-02-26T14:49:52;14.50;92.30
21770;DHT22;11046;49.558;8.674;2024-02-26T14:52:53;14.30;92.20
21770;DHT22;11046;49.558;8.674;2024-02-26T14:55:53;14.20;92.30
21770;DHT22;11046;49.558;8.674;2024-02-26T14:58:54;14.10;92.30
21770;DHT22;11046;49.558;8.674;2024-02-26T15:01:55;13.90;92.50
21770;DHT22;11046;49.558;8.674;2024-02-26T15:04:55;13.80;92.70
21770;DHT22;11046;49.558;8.674;2024-02-26T15:07:56;13.80;92.90
21770;DHT22;11046;49.558;8.674;2024-02-26T15:10:56;13.60;92.90
21770;DHT22;11046;49.558;8.674;2024-02-26T15:13:57;13.30;93.20
21770;DHT22;11046;49.558;8.674;2024-02-26T15:16:58;13.20;93.50
21770;DHT22;11046;49.558;8.674;2024-02-26T15:19:58;13.30;93.60
21770;DHT22;11046;49.558;8.674;2024-02-26T15:22:59;13.30;93.50
21770;DHT22;11046;49.558;8.674;2024-02-26T15:26:00;13.30;93.60
21770;DHT22;11046;49.558;8.674;2024-02-26T15:29:01;13.40;93.60
21770;DHT22;11046;49.558;8.674;2024-02-26T15:32:01;13.40;93.50
21770;DHT22;11046;49.558;8.674;2024-02-26T15:35:02;13.40;93.50
21770;DHT22;11046;49.558;8.674;2024-02-26T15:38:03;13.40;93.30
21770;DHT22;11046;49.558;8.674;2024-02-26T15:41:11;13.40;93.20
21770;DHT22;11046;49.558;8.674;2024-02-26T15:44:12;13.40;93.20
21770;DHT22;11046;49.558;8.674;2024-02-26T15:47:13;13.40;93.20
21770;DHT22;11046;49.558;8.674;2024-02-26T15:50:13;13.40;93.20
21770;DHT22;11046;49.558;8.674;2024-02-26T15:53:16;13.40;93.40
21770;DHT22;11046;49.558;8.674;2024-02-26T15:56:25;13.30;93.40
21770;DHT22;11046;49.558;8.674;2024-02-26T15:59:26;13.40;93.30
21770;DHT22;11046;49.558;8.674;2024-02-26T16:02:28;13.40;93.30
21770;DHT22;11046;49.558;8.674;2024-02-26T16:05:29;13.40;93.40
21770;DHT22;11046;49.558;8.674;2024-02-26T16:08:30;13.40;93.40
21770;DHT22;11046;49.558;8.674;2024-02-26T16:11:34;13.40;93.50
21770;DHT22;11046;49.558;8.674;2024-02-26T16:14:48;13.30;93.40
21770;DHT22;11046;49.558;8.674;2024-02-26T16:17:50;13.30;93.50
21770;DHT22;11046;49.558;8.674;2024-02-26T16:20:52;13.20;93.40
21770;DHT22;11046;49.558;8.674;2024-02-26T16:23:55;13.10;93.50
21770;DHT22;11046;49.558;8.674;2024-02-26T16:26:56;13.00;93.60
21770;DHT22;11046;49.558;8.674;2024-02-26T16:29:56;12.90;93.90
21770;DHT22;11046;49.558;8.674;2024-02-26T16:32:58;12.80;93.70
21770;DHT22;11046;49.558;8.674;2024-02-26T16:36:00;12.90;93.60
21770;DHT22;11046;49.558;8.674;2024-02-26T16:39:06;12.80;93.60
21770;DHT22;11046;49.558;8.674;2024-02-26T16:42:10;12.60;93.60
21770;DHT22;11046;49.558;8.674;2024-02-26T16:45:14;12.50;93.70
21770;DHT22;11046;49.558;8.674;2024-02-26T16:48:15;12.40;93.90
21770;DHT22;11046;49.558;8.674;2024-02-26T16:51:16;12.30;93.90
21770;DHT22;11046;49.558;8.674;2024-02-26T16:54:16;12.20;94.00
21770;DHT22;11046;49.558;8.674;2024-02-26T16:57:19;12.20;94.00
21770;DHT22;11046;49.558;8.674;2024-02-26T17:00:21;12.20;94.00
21770;DHT22;11046;49.558;8.674;2024-02-26T17:03:22;12.00;94.00
21770;DHT22;11046;49.558;8.674;2024-02-26T17:06:23;11.90;94.00
21770;DHT22;11046;49.558;8.674;2024-02-26T17:09:23;11.70;94.00
21770;DHT22;11046;49.558;8.674;2024-02-26T17:12:24;11.60;94.10
21770;DHT22;11046;49.558;8.674;2024-02-26T17:15:25;11.60;94.20
21770;DHT22;11046;49.558;8.674;2024-02-26T17:18:26;11.50;94.20
21770;DHT22;11046;49.558;8.674;2024-02-26T17:21:27;11.50;94.30
21770;DHT22;11046;49.558;8.674;2024-02-26T17:24:28;11.40;94.40
21770;DHT22;11046;49.558;8.674;2024-02-26T17:27:31;11.20;94.40
21770;DHT22;11046;49.558;8.674;2024-02-26T17:30:34;11.10;94.60
21770;DHT22;11046;49.558;8.674;2024-02-26T17:33:35;11.00;94.60
21770;DHT22;11046;49.558;8.674;2024-02-26T17:36:36;11.00;94.70
21770;DHT22;11046;49.558;8.674;2024-02-26T17:39:45;10.80;94.80
21770;DHT22;11046;49.558;8.674;2024-02-26T17:42:50;10.80;94.90
21770;DHT22;11046;49.558;8.674;2024-02-26T17:45:53;10.80;94.90
21770;DHT22;11046;49.558;8.674;2024-02-26T17:48:56;10.80;94.90
21770;DHT22;11046;49.558;8.674;2024-02-26T17:51:58;10.70;94.90
21770;DHT22;11046;49.558;8.674;2024-02-26T17:54:58;10.70;94.90
21770;DHT22;11046;49.558;8.674;2024-02-26T17:58:01;10.60;94.90
21770;DHT22;11046;49.558;8.674;2024-02-26T18:01:02;10.60;95.00
21770;DHT22;11046;49.558;8.674;2024-02-26T18:04:03;10.50;95.00
21770;DHT22;11046;49.558;8.674;2024-02-26T18:07:03;10.50;95.00
21770;DHT22;11046;49.558;8.674;2024-02-26T18:10:05;10.50;95.00
21770;DHT22;11046;49.558;8.674;2024-02-26T18:13:09;10.50;95.00
21770;DHT22;11046;49.558;8.674;2024-02-26T18:16:13;10.40;95.00
21770;DHT22;11046;49.558;8.674;2024-02-26T18:19:14;10.30;95.10
21770;DHT22;11046;49.558;8.674;2024-02-26T18:22:14;10.20;95.20
21770;DHT22;11046;49.558;8.674;2024-02-26T18:25:15;10.20;95.20
21770;DHT22;11046;49.558;8.674;2024-02-26T18:28:23;10.20;95.20
21770;DHT22;11046;49.558;8.674;2024-02-26T18:31:28;10.20;95.20
21770;DHT22;11046;49.558;8.674;2024-02-26T18:34:33;10.10;95.20
21770;DHT22;11046;49.558;8.674;2024-02-26T18:37:33;10.10;95.30
21770;DHT22;11046;49.558;8.674;2024-02-26T18:40:35;10.10;95.30
21770;DHT22;11046;49.558;8.674;2024-02-26T18:43:36;10.00;95.30
21770;DHT22;11046;49.558;8.674;2024-02-26T18:46:44;10.00;95.30
21770;DHT22;11046;49.558;8.674;2024-02-26T18:49:46;10.00;95.30
21770;DHT22;11046;49.558;8.674;2024-02-26T18:52:46;9.90;95.40
21770;DHT22;11046;49.558;8.674;2024-02-26T18:55:51;9.90;95.40
21770;DHT22;11046;49.558;8.674;2024-02-26T18:58:52;9.90;95.40
21770;DHT22;11046;49.558;8.674;2024-02-26T19:01:56;9.90;95.30
21770;DHT22;11046;49.558;8.674;2024-02-26T19:04:59;9.80;95.40
21770;DHT22;11046;49.558;8.674;2024-02-26T19:08:00;9.80;95.40
21770;DHT22;11046;49.558;8.674;2024-02-26T19:11:09;9.80;95.40
21770;DHT22;11046;49.558;8.674;2024-02-26T19:14:13;9.80;95.40
21770;DHT22;11046;49.558;8.674;2024-02-26T19:17:14;9.70;95.40
21770;DHT22;11046;49.558;8.674;2024-02-26T19:20:15;9.70;95.30
21770;DHT22;11046;49.558;8.674;2024-02-26T19:23:20;9.70;95.40